Time;durP1;ratioP1;P1;durP2;ratioP2;P2;SDS_P1;SDS_P2;PMS_P1;PMS_P2;Temp;Humidity;BMP_temperature;BMP_pressure;BME280_temperature;BME280_humidity;BME280_pressure;Samples;Min_cycle;Max_cycle;Signal;HPM_P1;HPM_P2
2022/08/22 00:00:53;;;;;;;7.05;1.98;;;;;;;16.97;100.00;101014.13;5012474;28;20423;-87
2022/08/22 00:03:38;;;;;;;5.03;1.77;;;;;;;17.00;100.00;101024.47;5029541;28;20907;-87
2022/08/22 00:06:20;;;;;;;6.22;1.90;;;;;;;17.02;100.00;101010.41;5027728;28;20422;-87
2022/08/22 00:09:03;;;;;;;6.72;1.90;;;;;;;17.09;100.00;101020.97;5010701;28;20435;-87
2022/08/22 00:11:45;;;;;;;4.15;1.70;;;;;;;17.11;100.00;101015.94;5022146;28;20431;-87
2022/08/22 00:14:33;;;;;;;5.65;1.65;;;;;;;17.10;100.00;101022.59;5030195;28;20430;-87
2022/08/22 00:17:18;;;;;;;6.82;1.77;;;;;;;16.99;100.00;101020.09;5010828;28;20804;-87
2022/08/22 00:19:59;;;;;;;5.75;1.73;;;;;;;16.92;100.00;101013.44;5003852;28;20437;-87
2022/08/22 00:22:34;;;;;;;6.32;1.83;;;;;;;16.86;100.00;101020.16;5004836;28;20915;-87
2022/08/22 00:25:26;;;;;;;4.50;1.70;;;;;;;16.86;100.00;101026.44;5011713;28;20426;-87
2022/08/22 00:28:01;;;;;;;5.95;1.98;;;;;;;16.78;100.00;101024.47;5025127;28;20431;-86
2022/08/22 00:30:45;;;;;;;4.50;1.88;;;;;;;16.78;100.00;101022.53;5010021;28;20435;-87
2022/08/22 00:33:25;;;;;;;9.15;2.25;;;;;;;16.72;100.00;101022.97;5031169;28;20415;-86
2022/08/22 00:36:09;;;;;;;8.27;2.10;;;;;;;16.72;100.00;101028.47;5030307;28;20427;-87
2022/08/22 00:38:49;;;;;;;8.87;2.00;;;;;;;16.61;100.00;101031.47;5034696;28;20518;-86
2022/08/22 00:41:38;;;;;;;6.20;1.92;;;;;;;16.60;100.00;101029.84;5030286;28;20914;-87
2022/08/22 00:44:36;;;;;;;4.85;2.10;;;;;;;16.65;100.00;101034.41;5026215;28;20431;-88
2022/08/22 00:47:26;;;;;;;4.95;1.83;;;;;;;16.69;100.00;101034.59;5025431;28;20789;-86
2022/08/22 00:50:44;;;;;;;4.82;1.85;;;;;;;16.67;100.00;101034.91;5018010;28;20930;-86
2022/08/22 00:53:31;;;;;;;5.82;1.70;;;;;;;16.63;100.00;101028.41;5006134;28;20439;-86
2022/08/22 00:56:31;;;;;;;5.18;1.92;;;;;;;16.65;100.00;101029.72;5026236;28;20437;-87
2022/08/22 00:59:21;;;;;;;6.88;1.98;;;;;;;16.73;100.00;101028.16;5021895;28;20437;-87
2022/08/22 01:02:07;;;;;;;5.77;2.00;;;;;;;16.75;100.00;101025.09;5024181;28;20423;-87
2022/08/22 01:04:51;;;;;;;4.80;1.77;;;;;;;16.80;100.00;101020.28;5029618;28;20435;-88
2022/08/22 01:07:40;;;;;;;4.93;1.92;;;;;;;16.84;100.00;101018.50;5027672;28;20442;-87
2022/08/22 01:10:37;;;;;;;7.63;1.90;;;;;;;16.81;100.00;101012.84;5027059;28;20438;-88
2022/08/22 01:13:27;;;;;;;6.88;1.92;;;;;;;16.90;100.00;101021.97;5027897;28;20481;-87
2022/08/22 01:16:13;;;;;;;7.80;1.90;;;;;;;16.90;100.00;101016.47;5029307;28;20426;-87
2022/08/22 01:19:11;;;;;;;7.07;2.17;;;;;;;16.99;100.00;101008.28;5028053;28;20427;-87
2022/08/22 01:22:12;;;;;;;5.80;1.93;;;;;;;16.98;100.00;101015.72;5017881;28;20423;-87
2022/08/22 01:25:22;;;;;;;6.93;2.20;;;;;;;17.01;100.00;101019.78;5012315;28;20454;-87
2022/08/22 01:28:16;;;;;;;6.22;1.80;;;;;;;17.05;100.00;101018.03;5028540;28;20438;-87
2022/08/22 01:31:19;;;;;;;6.37;1.73;;;;;;;17.06;100.00;101024.34;5028774;28;20521;-86
2022/08/22 01:34:31;;;;;;;6.10;2.20;;;;;;;17.03;100.00;101023.03;5028055;28;20419;-86
2022/08/22 01:37:24;;;;;;;5.45;2.10;;;;;;;17.06;100.00;101019.66;5007482;28;20450;-87
2022/08/22 01:40:33;;;;;;;6.93;2.13;;;;;;;17.04;100.00;101026.59;5026802;28;20423;-87
2022/08/22 01:43:09;;;;;;;8.32;2.03;;;;;;;16.99;100.00;101013.78;5006750;28;20438;-87
2022/08/22 01:46:00;;;;;;;5.63;1.80;;;;;;;16.95;100.00;101018.31;5027529;28;20492;-86
2022/08/22 01:48:39;;;;;;;7.28;2.30;;;;;;;16.82;100.00;101014.44;5029710;28;20434;-87
2022/08/22 01:51:20;;;;;;;4.45;1.98;;;;;;;16.86;100.00;101015.44;5028424;28;20431;-86
2022/08/22 01:54:00;;;;;;;6.10;2.00;;;;;;;16.96;100.00;101025.44;5011588;28;20517;-87
2022/08/22 01:56:34;;;;;;;4.93;1.98;;;;;;;16.94;100.00;101028.47;5027350;28;20817;-87
2022/08/22 01:59:10;;;;;;;7.45;2.28;;;;;;;16.94;100.00;101022.16;5029090;28;20453;-87
2022/08/22 02:01:57;;;;;;;5.32;1.80;;;;;;;16.98;100.00;101026.72;5011878;28;20430;-87
2022/08/22 02:04:38;;;;;;;6.57;1.95;;;;;;;17.03;100.00;101027.69;5026703;28;20441;-86
2022/08/22 02:07:20;;;;;;;7.80;2.00;;;;;;;16.97;100.00;101033.34;5033212;28;21598;-87
2022/08/22 02:10:10;;;;;;;8.38;1.73;;;;;;;16.97;100.00;101029.78;5033346;28;20430;-87
2022/08/22 02:12:45;;;;;;;4.57;2.10;;;;;;;16.99;100.00;101028.34;5028087;28;20422;-87
2022/08/22 02:15:24;;;;;;;7.40;2.10;;;;;;;16.96;100.00;101026.22;5031056;28;20419;-88
2022/08/22 02:18:15;;;;;;;7.55;2.30;;;;;;;16.97;100.00;101036.09;5032596;28;20434;-87
2022/08/22 02:21:03;;;;;;;7.17;1.80;;;;;;;16.96;100.00;101034.47;5027737;28;20430;-87
2022/08/22 02:23:50;;;;;;;7.07;2.37;;;;;;;17.03;100.00;101044.19;5028249;28;20430;-88
2022/08/22 02:26:28;;;;;;;10.60;2.33;;;;;;;16.91;100.00;101044.78;5030163;28;20430;-88
2022/08/22 02:29:08;;;;;;;6.00;2.08;;;;;;;16.86;100.00;101039.38;5032768;28;20433;-86
2022/08/22 02:31:49;;;;;;;9.02;2.22;;;;;;;16.89;100.00;101022.28;5027986;28;20430;-87
2022/08/22 02:34:36;;;;;;;4.97;2.00;;;;;;;16.81;100.00;101027.41;5033140;28;20435;-86
2022/08/22 02:37:15;;;;;;;7.53;2.20;;;;;;;16.75;100.00;101025.91;5023446;28;20435;-86
2022/08/22 02:40:02;;;;;;;5.75;2.10;;;;;;;16.71;100.00;101024.91;5032207;28;20930;-86
2022/08/22 02:42:42;;;;;;;5.50;2.10;;;;;;;16.72;100.00;101023.78;5010629;28;20440;-86
2022/08/22 02:45:28;;;;;;;5.93;2.10;;;;;;;16.80;100.00;101020.28;5030033;28;20431;-87
2022/08/22 02:48:16;;;;;;;7.80;2.30;;;;;;;16.80;100.00;101024.97;5031696;28;21134;-86
2022/08/22 02:50:55;;;;;;;7.85;2.53;;;;;;;16.57;100.00;101005.75;5026469;28;20430;-86
2022/08/22 02:53:36;;;;;;;4.80;2.10;;;;;;;16.80;100.00;101027.72;5030655;28;20435;-87
2022/08/22 02:56:18;;;;;;;5.45;2.17;;;;;;;16.69;100.00;101018.91;5028846;28;20928;-86
2022/08/22 02:58:54;;;;;;;6.60;2.13;;;;;;;16.64;100.00;101016.28;5031961;28;20434;-87
2022/08/22 03:01:38;;;;;;;8.23;2.20;;;;;;;16.62;100.00;101013.03;5021289;28;20434;-86
2022/08/22 03:04:31;;;;;;;4.87;2.33;;;;;;;16.59;100.00;101019.97;5021864;28;20432;-87
2022/08/22 03:07:14;;;;;;;4.20;1.90;;;;;;;16.53;100.00;101015.75;5015723;28;20458;-86
2022/08/22 03:10:01;;;;;;;6.32;2.00;;;;;;;16.54;100.00;101019.28;5011245;28;20923;-86
2022/08/22 03:12:44;;;;;;;6.13;2.00;;;;;;;16.69;100.00;101020.84;5006752;28;20450;-86
2022/08/22 03:15:23;;;;;;;6.32;2.30;;;;;;;16.74;100.00;101021.53;5026450;28;20437;-88
2022/08/22 03:17:58;;;;;;;6.80;2.20;;;;;;;16.69;100.00;101027.16;5012501;28;20423;-87
2022/08/22 03:20:46;;;;;;;7.13;2.28;;;;;;;16.76;100.00;101018.47;5029423;28;20442;-86
2022/08/22 03:23:35;;;;;;;6.13;2.20;;;;;;;16.77;100.00;101022.84;5030034;28;20427;-87
2022/08/22 03:26:16;;;;;;;7.70;2.42;;;;;;;16.72;100.00;101017.47;5010671;28;20438;-86
2022/08/22 03:28:54;;;;;;;6.10;2.30;;;;;;;16.57;100.00;101014.00;5027614;28;20408;-87
2022/08/22 03:31:29;;;;;;;5.60;2.00;;;;;;;16.71;100.00;101018.59;5029449;28;20434;-87
2022/08/22 03:34:19;;;;;;;7.47;2.17;;;;;;;16.63;100.00;101018.22;5029612;28;20753;-87
2022/08/22 03:37:04;;;;;;;4.93;2.10;;;;;;;16.71;100.00;101019.41;5031348;28;20434;-86
2022/08/22 03:39:49;;;;;;;8.90;2.25;;;;;;;16.66;100.00;101008.56;5017984;28;20432;-86
2022/08/22 03:42:43;;;;;;;7.38;2.42;;;;;;;16.63;100.00;101017.44;5028012;28;20423;-87
2022/08/22 03:46:09;;;;;;;5.53;2.17;;;;;;;16.56;100.00;101028.84;5007171;28;20435;-85
2022/08/22 03:48:56;;;;;;;8.85;2.40;;;;;;;16.50;100.00;101027.34;4977361;28;20423;-86
2022/08/22 03:51:54;;;;;;;6.70;2.30;;;;;;;16.52;100.00;101033.34;5029550;28;20757;-87
2022/08/22 03:55:01;;;;;;;5.85;2.28;;;;;;;16.53;100.00;101028.66;5012873;28;20428;-87
2022/08/22 03:57:56;;;;;;;4.95;2.10;;;;;;;16.52;100.00;101030.59;5001824;28;20442;-87
2022/08/22 04:00:52;;;;;;;6.93;2.50;;;;;;;16.54;100.00;101039.31;5028888;28;20946;-86
2022/08/22 04:03:53;;;;;;;6.80;2.78;;;;;;;16.38;100.00;101033.41;5007345;28;20923;-87
2022/08/22 04:06:49;;;;;;;7.53;2.70;;;;;;;16.49;100.00;101031.22;4972699;28;20431;-87
2022/08/22 04:09:53;;;;;;;7.22;2.40;;;;;;;16.42;100.00;101025.31;5012133;28;20430;-85
2022/08/22 04:12:53;;;;;;;7.13;2.60;;;;;;;16.38;100.00;101036.16;5011794;28;20508;-86
2022/08/22 04:15:46;;;;;;;7.65;2.53;;;;;;;16.36;100.00;101032.06;5028720;28;20431;-87
2022/08/22 04:18:43;;;;;;;6.38;2.33;;;;;;;16.39;100.00;101034.19;5030346;28;20427;-86
2022/08/22 04:21:36;;;;;;;6.68;2.45;;;;;;;16.40;100.00;101036.63;5009322;28;20431;-88
2022/08/22 04:24:45;;;;;;;5.88;2.38;;;;;;;16.46;100.00;101040.06;5026657;28;20434;-87
2022/08/22 04:27:21;;;;;;;8.68;2.38;;;;;;;16.40;100.00;101044.88;4969067;28;20433;-87
2022/08/22 04:30:01;;;;;;;8.50;2.63;;;;;;;16.36;100.00;101054.06;5033187;28;20486;-86
2022/08/22 04:32:40;;;;;;;6.70;2.20;;;;;;;16.37;100.00;101055.69;5030245;28;20426;-87
2022/08/22 04:35:26;;;;;;;7.75;2.75;;;;;;;16.39;100.00;101053.41;5031137;28;20438;-87
2022/08/22 04:38:07;;;;;;;7.85;2.60;;;;;;;16.35;100.00;101052.41;5014253;28;20434;-87
2022/08/22 04:40:46;;;;;;;5.95;2.42;;;;;;;16.46;100.00;101059.28;5006133;28;20931;-87
2022/08/22 04:43:20;;;;;;;7.95;2.75;;;;;;;16.37;100.00;101061.97;5006844;28;20451;-86
2022/08/22 04:45:54;;;;;;;6.70;3.05;;;;;;;16.26;100.00;101057.84;5026565;28;20434;-87
2022/08/22 04:48:32;;;;;;;6.90;2.40;;;;;;;16.35;100.00;101071.66;5030183;28;20419;-86
2022/08/22 04:51:08;;;;;;;6.18;2.35;;;;;;;16.45;100.00;101066.72;5006548;28;20431;-86
2022/08/22 04:54:01;;;;;;;5.57;2.22;;;;;;;16.48;100.00;101068.84;5033627;28;21093;-86
2022/08/22 04:56:42;;;;;;;7.30;2.40;;;;;;;16.50;100.00;101068.53;5031909;28;20430;-85
2022/08/22 04:59:17;;;;;;;5.55;2.28;;;;;;;16.58;100.00;101080.75;5009534;28;20435;-86
2022/08/22 05:01:52;;;;;;;7.00;2.23;;;;;;;16.63;100.00;101069.63;5018331;28;20436;-87
2022/08/22 05:04:30;;;;;;;6.75;2.60;;;;;;;16.60;100.00;101065.56;5026136;28;20904;-87
2022/08/22 05:07:06;;;;;;;9.80;2.70;;;;;;;16.62;100.00;101070.75;5007922;28;20468;-86
2022/08/22 05:09:46;;;;;;;6.80;2.90;;;;;;;16.52;100.00;101076.47;5016429;28;20802;-88
2022/08/22 05:12:27;;;;;;;6.80;2.80;;;;;;;16.49;100.00;101078.72;5027173;28;20426;-86
2022/08/22 05:15:05;;;;;;;10.55;2.88;;;;;;;16.59;100.00;101083.16;5005851;28;20438;-86
2022/08/22 05:17:41;;;;;;;7.45;2.60;;;;;;;16.63;100.00;101075.13;5026959;28;20426;-87
2022/08/22 05:20:19;;;;;;;7.55;2.80;;;;;;;16.65;100.00;101076.44;5024812;28;20426;-86
2022/08/22 05:22:58;;;;;;;8.10;2.50;;;;;;;16.71;100.00;101085.38;5009067;28;20819;-86
2022/08/22 05:25:34;;;;;;;9.93;2.60;;;;;;;16.63;100.00;101069.63;5006988;28;20430;-86
2022/08/22 05:28:15;;;;;;;7.37;2.73;;;;;;;16.72;100.00;101084.22;5026195;28;20438;-86
2022/08/22 05:30:48;;;;;;;7.43;2.90;;;;;;;16.70;100.00;101089.25;5015796;28;20432;-86
2022/08/22 05:33:24;;;;;;;9.13;2.60;;;;;;;16.82;100.00;101094.16;5024915;28;20799;-86
2022/08/22 05:36:03;;;;;;;8.52;2.88;;;;;;;16.75;100.00;101091.88;5027755;28;20435;-86
2022/08/22 05:38:42;;;;;;;7.65;2.88;;;;;;;16.81;100.00;101084.31;5011995;28;20423;-89
2022/08/22 05:41:20;;;;;;;9.13;3.30;;;;;;;16.82;100.00;101085.91;5010466;28;20439;-87
2022/08/22 05:43:54;;;;;;;10.25;3.00;;;;;;;16.87;100.00;101087.75;5012953;28;20419;-88
2022/08/22 05:46:37;;;;;;;6.20;2.50;;;;;;;16.99;100.00;101094.31;5029524;28;20434;-88
2022/08/22 05:49:18;;;;;;;8.07;3.05;;;;;;;16.94;100.00;101088.94;5011829;28;20907;-85
2022/08/22 05:52:05;;;;;;;6.23;2.70;;;;;;;17.09;100.00;101095.19;5028387;28;20795;-85
2022/08/22 05:54:42;;;;;;;7.93;2.90;;;;;;;17.18;100.00;101101.56;5002196;28;20434;-86
2022/08/22 05:57:23;;;;;;;7.50;2.78;;;;;;;17.08;100.00;101105.41;5023423;28;20434;-86
2022/08/22 06:00:03;;;;;;;6.80;2.72;;;;;;;17.26;100.00;101106.31;5011567;28;20430;-86
2022/08/22 06:02:53;;;;;;;7.63;2.60;;;;;;;17.24;100.00;101092.06;5025297;28;20432;-86
2022/08/22 06:05:30;;;;;;;7.60;2.78;;;;;;;17.16;100.00;101098.31;5028380;28;20903;-86
2022/08/22 06:08:04;;;;;;;9.15;2.65;;;;;;;17.27;100.00;101098.88;4998960;28;20436;-88
2022/08/22 06:10:43;;;;;;;7.33;2.63;;;;;;;17.32;100.00;101098.75;5027253;28;20454;-86
2022/08/22 06:13:18;;;;;;;8.10;2.87;;;;;;;17.26;100.00;101100.81;5023551;28;20435;-87
2022/08/22 06:16:01;;;;;;;8.83;2.87;;;;;;;17.19;100.00;101102.38;4999592;28;20434;-86
2022/08/22 06:18:37;;;;;;;8.43;2.88;;;;;;;17.20;100.00;101112.25;5027203;28;20434;-88
2022/08/22 06:21:17;;;;;;;7.67;2.90;;;;;;;17.37;100.00;101103.28;5012673;28;20494;-83
2022/08/22 06:23:56;;;;;;;9.57;3.13;;;;;;;17.51;100.00;101109.50;5020289;28;20436;-84
2022/08/22 06:26:36;;;;;;;8.05;2.72;;;;;;;17.53;100.00;101111.97;5007503;28;20442;-84
2022/08/22 06:29:15;;;;;;;7.93;2.93;;;;;;;17.45;100.00;101106.06;5009159;28;20430;-84
2022/08/22 06:31:49;;;;;;;7.15;2.83;;;;;;;17.47;100.00;101114.84;5007531;28;20925;-86
2022/08/22 06:34:26;;;;;;;7.03;2.90;;;;;;;17.46;100.00;101115.97;5027578;28;20453;-85
2022/08/22 06:37:04;;;;;;;6.10;2.60;;;;;;;17.50;100.00;101129.91;5023324;28;20416;-84
2022/08/22 06:39:35;;;;;;;11.13;2.95;;;;;;;17.51;100.00;101126.84;5025942;28;20423;-84
2022/08/22 06:42:13;;;;;;;6.00;2.65;;;;;;;17.57;100.00;101132.22;5023852;28;20436;-84
2022/08/22 06:44:50;;;;;;;8.43;3.03;;;;;;;17.50;100.00;101121.66;5025806;28;20434;-85
2022/08/22 06:47:27;;;;;;;9.02;2.80;;;;;;;17.50;100.00;101124.41;5011043;28;21657;-83
2022/08/22 06:50:10;;;;;;;8.23;2.70;;;;;;;17.63;100.00;101125.44;5009046;28;20959;-84
2022/08/22 06:52:51;;;;;;;8.65;3.00;;;;;;;17.55;100.00;101127.00;4988738;28;20439;-84
2022/08/22 06:55:27;;;;;;;7.93;2.90;;;;;;;17.60;100.00;101129.63;5005020;28;20425;-84
2022/08/22 06:58:05;;;;;;;5.63;2.60;;;;;;;17.80;100.00;101130.19;5004419;28;20937;-83
2022/08/22 07:00:35;;;;;;;7.82;2.83;;;;;;;17.89;100.00;101133.00;5005486;28;20426;-84
2022/08/22 07:03:19;;;;;;;8.20;3.20;;;;;;;17.90;100.00;101129.91;4985697;28;20426;-84
2022/08/22 07:05:48;;;;;;;8.50;2.90;;;;;;;17.84;100.00;101136.69;4997278;28;20445;-83
2022/08/22 07:08:21;;;;;;;6.80;2.60;;;;;;;18.04;100.00;101134.53;5000440;28;20765;-84
2022/08/22 07:10:58;;;;;;;9.15;2.90;;;;;;;17.92;100.00;101135.13;4981819;28;20803;-85
2022/08/22 07:13:36;;;;;;;7.60;2.70;;;;;;;18.02;100.00;101143.09;4982423;28;20434;-84
2022/08/22 07:16:09;;;;;;;7.10;2.80;;;;;;;18.25;100.00;101146.56;5006162;28;20430;-85
2022/08/22 07:18:47;;;;;;;6.18;2.40;;;;;;;18.38;100.00;101147.56;4993945;28;21074;-85
2022/08/22 07:21:27;;;;;;;6.53;2.50;;;;;;;18.53;100.00;101138.84;4995254;28;20429;-85
2022/08/22 07:24:01;;;;;;;7.32;2.70;;;;;;;18.62;100.00;101144.34;4979504;28;20441;-84
2022/08/22 07:26:37;;;;;;;8.25;2.60;;;;;;;18.65;100.00;101142.91;5002664;28;20796;-85
2022/08/22 07:29:22;;;;;;;7.75;2.42;;;;;;;18.77;100.00;101145.81;4980486;28;20437;-86
2022/08/22 07:32:05;;;;;;;7.82;2.53;;;;;;;18.90;100.00;101143.25;4979576;28;20738;-83
2022/08/22 07:34:52;;;;;;;8.30;2.50;;;;;;;18.99;100.00;101141.31;4997479;28;21021;-85
2022/08/22 07:37:37;;;;;;;6.77;2.30;;;;;;;19.16;100.00;101151.50;4985908;28;20447;-85
2022/08/22 07:40:21;;;;;;;5.53;2.13;;;;;;;19.25;100.00;101138.50;4975235;28;20437;-85
2022/08/22 07:42:55;;;;;;;8.05;2.15;;;;;;;19.34;100.00;101150.31;5004650;28;20461;-88
2022/08/22 07:45:38;;;;;;;7.68;2.28;;;;;;;19.35;100.00;101154.72;4999801;28;20639;-88
2022/08/22 07:48:21;;;;;;;9.37;2.63;;;;;;;19.45;100.00;101156.31;5007905;28;20512;-89
2022/08/22 07:51:02;;;;;;;8.30;2.72;;;;;;;19.50;100.00;101149.78;4999067;28;20425;-87
2022/08/22 07:53:40;;;;;;;5.82;2.30;;;;;;;19.45;100.00;101144.47;4980301;28;20458;-86
2022/08/22 07:56:18;;;;;;;5.13;1.90;;;;;;;19.50;100.00;101147.03;4996833;28;20924;-87
2022/08/22 07:58:56;;;;;;;6.70;2.00;;;;;;;19.57;100.00;101149.28;4986761;28;20977;-87
2022/08/22 08:01:31;;;;;;;9.23;2.40;;;;;;;19.75;100.00;101159.16;4996679;28;20434;-85
2022/08/22 08:04:11;;;;;;;9.38;2.60;;;;;;;19.94;100.00;101158.78;4998561;28;20435;-87
2022/08/22 08:06:48;;;;;;;7.00;2.10;;;;;;;19.95;100.00;101159.59;5004285;28;21132;-87
2022/08/22 08:09:21;;;;;;;6.43;2.03;;;;;;;19.88;100.00;101158.13;5007029;28;20908;-85
2022/08/22 08:11:55;;;;;;;8.05;2.20;;;;;;;20.04;100.00;101155.63;4988406;28;20432;-84
2022/08/22 08:14:29;;;;;;;7.90;2.10;;;;;;;20.04;100.00;101155.63;4985220;28;20439;-86
2022/08/22 08:17:09;;;;;;;7.60;2.13;;;;;;;20.07;100.00;101151.41;5001513;28;21398;-86
2022/08/22 08:19:46;;;;;;;6.28;2.28;;;;;;;20.20;100.00;101161.41;5006729;28;20434;-86
2022/08/22 08:22:22;;;;;;;7.70;2.20;;;;;;;20.33;100.00;101151.25;5000516;28;20784;-85
2022/08/22 08:24:58;;;;;;;9.15;2.20;;;;;;;20.59;100.00;101153.03;4981980;28;20429;-89
2022/08/22 08:30:24;;;;;;;7.57;2.30;;;;;;;20.88;100.00;101146.63;4995825;28;20436;-84
2022/08/22 08:33:01;;;;;;;5.95;2.13;;;;;;;21.03;100.00;101147.16;4976678;28;20437;-85
2022/08/22 08:35:39;;;;;;;9.48;3.22;;;;;;;21.00;100.00;101148.63;4993841;28;20438;-87
2022/08/22 08:38:18;;;;;;;7.13;2.10;;;;;;;20.97;100.00;101129.94;4979864;28;20435;-90
2022/08/22 08:41:19;;;;;;;6.95;2.22;;;;;;;21.04;100.00;101143.25;4996802;28;20434;-86
2022/08/22 08:44:04;;;;;;;6.43;1.90;;;;;;;21.18;100.00;101143.75;4946482;28;20442;-86
2022/08/22 08:46:56;;;;;;;5.88;1.90;;;;;;;21.13;100.00;101148.69;4997843;28;21882;-87
2022/08/22 08:49:55;;;;;;;7.63;2.15;;;;;;;21.13;100.00;101146.75;4999724;28;20434;-86
2022/08/22 08:52:51;;;;;;;6.43;2.20;;;;;;;21.29;100.00;101144.13;4998908;28;20442;-87
2022/08/22 08:55:38;;;;;;;6.32;2.10;;;;;;;21.00;100.00;101148.63;4996891;28;20716;-87
2022/08/22 08:58:28;;;;;;;6.85;2.15;;;;;;;20.66;100.00;101141.41;5003535;28;21859;-85
2022/08/22 09:01:15;;;;;;;6.18;2.03;;;;;;;20.73;100.00;101137.00;4983847;28;20437;-87
2022/08/22 09:04:25;;;;;;;6.40;1.85;;;;;;;20.90;100.00;101135.22;5009059;28;20825;-84
2022/08/22 09:07:46;;;;;;;6.10;2.00;;;;;;;20.78;100.00;101135.19;4998834;28;20842;-85
2022/08/22 09:10:41;;;;;;;6.43;2.00;;;;;;;20.83;100.00;101134.97;4975396;28;20808;-85
2022/08/22 09:13:40;;;;;;;7.20;2.00;;;;;;;21.01;100.00;101122.59;4995578;28;20417;-87
2022/08/22 09:16:50;;;;;;;6.50;2.30;;;;;;;21.21;100.00;101134.78;4982010;28;20962;-86
2022/08/22 09:19:56;;;;;;;8.30;2.10;;;;;;;21.60;100.00;101125.41;4918848;28;20549;-84
2022/08/22 09:23:05;;;;;;;7.05;2.25;;;;;;;21.59;100.00;101121.84;4959793;28;20431;-85
2022/08/22 09:25:43;;;;;;;5.93;1.95;;;;;;;21.66;100.00;101119.31;4995897;28;20927;-84
2022/08/22 09:28:16;;;;;;;7.07;1.90;;;;;;;21.58;100.00;101120.22;5008260;28;20422;-84
2022/08/22 09:31:09;;;;;;;4.78;1.90;;;;;;;21.61;100.00;101116.75;5011115;28;21903;-87
2022/08/22 09:33:53;;;;;;;6.13;1.85;;;;;;;21.78;100.00;101112.97;5014924;28;21560;-86
2022/08/22 09:36:32;;;;;;;5.65;1.70;;;;;;;21.94;100.00;101113.06;5014953;28;20940;-86
2022/08/22 09:39:16;;;;;;;5.07;2.00;;;;;;;21.95;100.00;101113.91;5014716;28;20422;-86
2022/08/22 09:41:57;;;;;;;4.70;2.00;;;;;;;22.00;100.00;101113.63;5017544;28;20421;-88
2022/08/22 09:44:46;;;;;;;11.10;1.90;;;;;;;22.21;100.00;101114.31;4996463;28;20433;-85
2022/08/22 09:47:22;;;;;;;5.33;1.70;;;;;;;22.46;100.00;101116.28;4986859;28;20698;-85
2022/08/22 09:50:00;;;;;;;11.27;2.17;;;;;;;22.54;100.00;101110.59;4978684;28;21109;-84
2022/08/22 09:52:54;;;;;;;8.73;2.17;;;;;;;22.80;100.00;101100.19;4985228;28;20446;-86
2022/08/22 09:55:40;;;;;;;7.70;2.03;;;;;;;22.84;100.00;101101.94;4991706;28;20436;-83
2022/08/22 09:58:22;;;;;;;7.13;1.90;;;;;;;23.08;100.00;101108.53;4997504;28;20442;-85
2022/08/22 10:00:55;;;;;;;6.32;1.63;;;;;;;23.07;100.00;101106.91;4983398;28;20470;-85
2022/08/22 10:03:52;;;;;;;5.70;2.00;;;;;;;23.24;100.00;101095.50;5005919;28;20435;-85
2022/08/22 10:06:33;;;;;;;5.28;1.70;;;;;;;23.30;100.00;101104.38;4975316;28;20465;-85
2022/08/22 10:09:12;;;;;;;7.22;1.75;;;;;;;23.06;100.00;101095.00;4998112;28;20426;-85
2022/08/22 10:11:54;;;;;;;4.77;1.63;;;;;;;22.79;100.00;101104.13;5002461;28;20889;-84
2022/08/22 10:14:37;;;;;;;4.68;1.60;;;;;;;22.51;100.00;101100.19;5011588;28;20438;-86
2022/08/22 10:17:17;;;;;;;8.43;1.95;;;;;;;22.23;100.00;101105.66;4994487;28;20434;-85
2022/08/22 10:19:53;;;;;;;6.10;2.00;;;;;;;22.26;100.00;101104.94;4998892;28;20433;-84
2022/08/22 10:22:38;;;;;;;4.45;1.73;;;;;;;22.24;100.00;101091.44;4988341;28;21005;-85
2022/08/22 10:25:29;;;;;;;3.95;1.70;;;;;;;22.27;100.00;101106.56;5006898;28;21039;-85
2022/08/22 10:28:18;;;;;;;6.15;1.63;;;;;;;22.25;100.00;101098.59;5007426;28;20791;-86
2022/08/22 10:31:08;;;;;;;5.00;1.50;;;;;;;22.29;100.00;101087.63;5005506;28;20435;-86
2022/08/22 10:33:48;;;;;;;5.03;1.67;;;;;;;22.20;100.00;101081.41;5004473;28;20425;-85
2022/08/22 10:36:29;;;;;;;6.03;1.65;;;;;;;22.05;100.00;101086.53;4987791;28;20836;-86
2022/08/22 10:39:06;;;;;;;4.15;1.67;;;;;;;22.06;100.00;101073.47;4985014;28;20429;-86
2022/08/22 10:41:55;;;;;;;5.10;1.60;;;;;;;22.16;100.00;101086.84;5000363;28;20427;-86
2022/08/22 10:44:39;;;;;;;2.90;1.45;;;;;;;22.46;100.00;101075.47;4982481;28;20464;-86
2022/08/22 10:47:17;;;;;;;5.77;1.60;;;;;;;22.69;100.00;101081.28;5010238;28;20996;-87
2022/08/22 10:49:50;;;;;;;5.32;1.70;;;;;;;22.86;100.00;101080.16;4980824;28;20919;-86
2022/08/22 10:52:30;;;;;;;6.43;2.03;;;;;;;23.13;100.00;101077.72;5001415;28;20463;-86
2022/08/22 10:55:12;;;;;;;6.22;1.98;;;;;;;23.33;100.00;101069.53;4999556;28;20446;-84
2022/08/22 10:57:59;;;;;;;4.15;1.50;;;;;;;23.36;100.00;101077.16;4996391;28;20979;-82
2022/08/22 11:00:43;;;;;;;6.97;1.88;;;;;;;23.58;100.00;101079.28;5001904;28;22244;-84
2022/08/22 11:03:23;;;;;;;4.88;1.73;;;;;;;23.68;100.00;101086.25;4976784;28;21638;-84
2022/08/22 11:05:59;;;;;;;5.10;1.60;;;;;;;23.48;99.20;101070.69;4982843;28;20429;-86
2022/08/22 11:08:56;;;;;;;3.40;1.25;;;;;;;23.66;93.64;101085.03;4989964;28;20436;-87
2022/08/22 11:11:41;;;;;;;4.15;1.70;;;;;;;24.04;99.93;101076.03;4984220;28;21222;-84
2022/08/22 11:14:46;;;;;;;7.93;2.13;;;;;;;24.16;99.04;101069.53;5004313;28;21818;-86
2022/08/22 11:17:53;;;;;;;4.20;1.67;;;;;;;24.17;98.59;101073.09;4979841;28;20439;-83
2022/08/22 11:20:28;;;;;;;3.90;1.60;;;;;;;23.94;87.98;101073.81;4997994;28;20472;-83
2022/08/22 11:23:19;;;;;;;4.68;1.63;;;;;;;24.24;100.00;101071.31;4981236;28;20439;-85
2022/08/22 11:26:03;;;;;;;6.18;1.48;;;;;;;24.27;88.16;101072.56;5001402;28;20457;-82
2022/08/22 11:29:00;;;;;;;6.20;1.60;;;;;;;24.32;96.35;101060.31;5003954;28;20927;-85
2022/08/22 11:31:44;;;;;;;4.45;1.70;;;;;;;24.56;100.00;101057.25;4993150;28;20827;-84
2022/08/22 11:34:30;;;;;;;5.13;1.60;;;;;;;25.00;94.88;101066.47;5001250;28;21285;-84
2022/08/22 11:37:08;;;;;;;4.57;1.60;;;;;;;24.88;100.00;101065.44;5004625;28;20788;-85
2022/08/22 11:40:01;;;;;;;5.07;1.52;;;;;;;24.72;100.00;101064.72;5003229;28;21121;-86
2022/08/22 11:42:44;;;;;;;4.80;1.55;;;;;;;24.87;93.88;101060.25;4987041;28;20446;-85
2022/08/22 11:45:24;;;;;;;4.18;1.63;;;;;;;25.06;100.00;101057.41;4997354;28;20430;-85
2022/08/22 11:48:06;;;;;;;11.48;1.80;;;;;;;25.08;97.79;101057.88;4998144;28;20423;-85
2022/08/22 11:50:47;;;;;;;4.85;1.65;;;;;;;25.20;93.38;101056.88;4981458;28;20438;-84
2022/08/22 11:53:32;;;;;;;5.47;1.70;;;;;;;25.37;91.70;101052.00;5007123;28;20429;-85
2022/08/22 11:56:18;;;;;;;4.22;1.45;;;;;;;25.58;100.00;101055.16;5002328;28;20433;-86
2022/08/22 11:58:59;;;;;;;5.40;1.60;;;;;;;25.77;87.07;101047.84;4991250;28;20439;-86
2022/08/22 12:01:38;;;;;;;4.47;1.67;;;;;;;25.95;95.02;101050.94;4989713;28;20435;-86
2022/08/22 12:04:18;;;;;;;5.38;1.70;;;;;;;26.09;91.16;101050.34;4980089;28;20496;-85
2022/08/22 12:07:13;;;;;;;6.55;1.80;;;;;;;25.59;75.62;101045.63;4981659;28;20934;-84
2022/08/22 12:09:53;;;;;;;4.50;1.48;;;;;;;25.30;82.47;101047.91;5004532;28;20436;-87
2022/08/22 12:12:33;;;;;;;6.87;1.83;;;;;;;25.51;97.07;101043.91;4987812;28;20421;-85
2022/08/22 12:15:14;;;;;;;3.70;1.52;;;;;;;25.66;85.81;101036.56;4992087;28;20444;-84
2022/08/22 12:18:21;;;;;;;5.38;1.60;;;;;;;25.61;82.44;101034.88;5006250;28;20431;-85
2022/08/22 12:21:15;;;;;;;4.97;1.70;;;;;;;25.79;90.65;101039.94;5012766;28;20420;-86
2022/08/22 12:24:17;;;;;;;5.13;1.60;;;;;;;26.04;84.08;101042.31;5002516;28;20428;-84
2022/08/22 12:27:03;;;;;;;4.50;1.48;;;;;;;25.39;71.03;101036.53;5012359;28;20427;-83
2022/08/22 12:29:48;;;;;;;3.22;1.42;;;;;;;24.82;75.76;101046.63;5007110;28;20423;-82
2022/08/22 12:32:44;;;;;;;5.28;1.70;;;;;;;25.06;77.46;101034.34;5008582;28;20451;-83
2022/08/22 12:35:29;;;;;;;3.72;1.52;;;;;;;25.61;89.22;101032.09;4996522;28;20433;-85
2022/08/22 12:38:13;;;;;;;4.43;1.70;;;;;;;25.74;90.83;101024.34;5002006;28;20429;-87